Anoka, Minnesota
Current Conditions -  °F | °C
As of 4:34 AM on Thursday 18 Dec 2014 (Local Time) from KANE Reporting Station
Light Snow Light Snow  
Wind Chill: 16°   Ceiling: 2300
Heat Index: 16°   Visibility: 5mi
Dew Point: 16°   Wind: 0mph
Humidity: 100%   Direction: NA
Pressure: 30.3"   Gusts: NA
Location:  45.2°N, 93.39°W
Report Text: KANE 181034Z AUTO 00000KT 5SM -SN OVC023 M09/M09 A3030 RMK AO2
Loading
Personal Weather Stations






























Interactive Weather Map New forecast layout! Learn more

10-Day Weather Forecast

Advertisements
Track Severe Weather on mobile